createdAt,value
2023-02-02T00:02:01.828Z,2.22
2023-02-02T00:04:31.274Z,1.70
2023-02-02T00:06:58.576Z,1.70
2023-02-02T00:09:29.092Z,1.73
2023-02-02T00:11:56.561Z,2.00
2023-02-02T00:14:23.337Z,2.03
2023-02-02T00:16:52.315Z,2.20
2023-02-02T00:19:26.282Z,1.83
2023-02-02T00:21:54.168Z,1.30
2023-02-02T00:24:21.750Z,2.08
2023-02-02T00:26:53.718Z,1.67
2023-02-02T00:29:23.126Z,1.45
2023-02-02T00:31:49.935Z,1.60
2023-02-02T00:34:17.360Z,1.75
2023-02-02T00:36:44.848Z,1.88
2023-02-02T00:39:15.263Z,1.70
2023-02-02T00:41:41.745Z,1.58
2023-02-02T00:44:26.764Z,1.47
2023-02-02T00:46:53.088Z,1.20
2023-02-02T00:49:19.608Z,1.77
2023-02-02T00:51:47.062Z,1.80
2023-02-02T00:54:14.379Z,2.10
2023-02-02T00:56:41.420Z,1.40
2023-02-02T00:59:07.804Z,1.95
2023-02-02T01:01:34.197Z,2.10
2023-02-02T01:04:01.696Z,2.00
2023-02-02T01:06:29.225Z,1.40
2023-02-02T01:08:55.692Z,1.70
2023-02-02T01:11:22.153Z,1.30
2023-02-02T01:13:48.523Z,1.23
2023-02-02T01:16:15.880Z,1.48
2023-02-02T01:18:42.483Z,1.73
2023-02-02T01:21:11.705Z,1.00
2023-02-02T01:23:39.045Z,1.50
2023-02-02T01:26:10.777Z,1.90
2023-02-02T01:28:37.525Z,1.10
2023-02-02T01:31:09.981Z,1.42
2023-02-02T01:33:36.620Z,1.10
2023-02-02T01:36:07.536Z,1.77
2023-02-02T01:38:34.710Z,1.40
2023-02-02T01:41:02.025Z,0.60
2023-02-02T01:43:46.521Z,0.82
2023-02-02T01:46:15.486Z,0.50
2023-02-02T01:48:45.785Z,0.80
2023-02-02T01:51:16.953Z,0.77
2023-02-02T01:53:46.029Z,0.85
2023-02-02T01:56:17.389Z,0.80
2023-02-02T01:58:45.322Z,0.77
2023-02-02T02:01:12.462Z,0.50
2023-02-02T02:03:38.945Z,0.80
2023-02-02T02:06:11.702Z,0.80
2023-02-02T02:08:47.456Z,1.00
2023-02-02T02:11:14.331Z,0.80
2023-02-02T02:13:59.960Z,0.88
2023-02-02T02:16:41.688Z,0.90
2023-02-02T02:20:04.612Z,0.82
2023-02-02T02:23:08.408Z,1.02
2023-02-02T02:26:24.015Z,1.20
2023-02-02T02:29:12.204Z,1.05
2023-02-02T02:32:06.681Z,1.48
2023-02-02T02:34:43.227Z,1.10
2023-02-02T02:37:17.441Z,1.63
2023-02-02T02:39:57.980Z,1.17
2023-02-02T02:42:28.508Z,1.48
2023-02-02T02:45:02.716Z,1.52
2023-02-02T02:47:31.264Z,1.25
2023-02-02T02:50:06.172Z,1.40
2023-02-02T02:52:34.682Z,0.97
2023-02-02T02:55:03.213Z,1.80
2023-02-02T02:58:07.983Z,1.83
2023-02-02T03:00:44.850Z,1.73
2023-02-02T03:03:19.596Z,1.92
2023-02-02T03:06:15.905Z,1.60
2023-02-02T03:08:55.762Z,1.85
2023-02-02T03:11:23.217Z,1.70
2023-02-02T03:13:49.758Z,2.13
2023-02-02T03:16:17.476Z,1.40
2023-02-02T03:18:44.128Z,2.00
2023-02-02T03:21:10.695Z,1.63
2023-02-02T03:23:37.098Z,1.73
2023-02-02T03:26:03.468Z,1.48
2023-02-02T03:28:30.917Z,1.88
2023-02-02T03:31:01.171Z,1.60
2023-02-02T03:33:28.042Z,1.45
2023-02-02T03:35:55.502Z,1.60
2023-02-02T03:38:21.887Z,1.67
2023-02-02T03:40:48.375Z,1.90
2023-02-02T03:43:20.552Z,1.57
2023-02-02T03:45:47.047Z,2.25
2023-02-02T03:48:13.451Z,1.90
2023-02-02T03:50:39.803Z,1.70
2023-02-02T03:53:06.187Z,1.90
2023-02-02T03:55:32.582Z,1.40
2023-02-02T03:57:58.970Z,2.33
2023-02-02T04:00:25.338Z,1.80
2023-02-02T04:02:51.781Z,1.58
2023-02-02T04:05:18.453Z,1.88
2023-02-02T04:07:44.848Z,2.23
2023-02-02T04:10:11.640Z,1.50
2023-02-02T04:12:37.992Z,1.55
2023-02-02T04:15:04.965Z,1.77
2023-02-02T04:17:31.387Z,1.90
2023-02-02T04:19:58.486Z,1.80
2023-02-02T04:22:26.047Z,1.48
2023-02-02T04:24:52.572Z,1.55
2023-02-02T04:27:19.008Z,1.83
2023-02-02T04:29:45.431Z,1.88
2023-02-02T04:32:11.830Z,1.30
2023-02-02T04:34:38.620Z,1.52
2023-02-02T04:37:05.053Z,1.40
2023-02-02T04:39:31.471Z,1.55
2023-02-02T04:41:59.930Z,1.55
2023-02-02T04:44:26.460Z,1.37
2023-02-02T04:46:56.028Z,1.60
2023-02-02T04:49:24.470Z,1.73
2023-02-02T04:51:50.879Z,1.23
2023-02-02T04:54:17.420Z,1.40
2023-02-02T04:56:43.898Z,2.00
2023-02-02T04:59:10.263Z,1.35
2023-02-02T05:01:36.646Z,1.60
2023-02-02T05:04:03.194Z,0.93
2023-02-02T05:06:29.562Z,1.58
2023-02-02T05:08:55.937Z,1.67
2023-02-02T05:11:23.916Z,1.60
2023-02-02T05:13:53.085Z,1.90
2023-02-02T05:16:20.409Z,2.45
2023-02-02T05:18:55.284Z,2.00
2023-02-02T05:21:22.006Z,1.70
2023-02-02T05:23:48.652Z,1.70
2023-02-02T05:26:19.430Z,2.55
2023-02-02T05:28:45.959Z,1.67
2023-02-02T05:31:12.452Z,1.23
2023-02-02T05:33:38.892Z,2.27
2023-02-02T05:36:07.091Z,2.03
2023-02-02T05:38:33.666Z,2.15
2023-02-02T05:41:00.396Z,1.55
2023-02-02T05:43:28.851Z,1.90
2023-02-02T05:45:55.248Z,2.30
2023-02-02T05:48:21.737Z,1.65
2023-02-02T05:50:56.842Z,1.90
2023-02-02T05:53:23.605Z,1.60
2023-02-02T05:55:49.981Z,1.67
2023-02-02T05:58:16.346Z,1.40
2023-02-02T06:00:42.709Z,1.33
2023-02-02T06:03:09.328Z,1.63
2023-02-02T06:05:35.729Z,1.35
2023-02-02T06:08:02.074Z,1.60
2023-02-02T06:10:28.486Z,1.73
2023-02-02T06:12:54.886Z,1.42
2023-02-02T06:15:21.244Z,1.20
2023-02-02T06:17:47.586Z,1.30
2023-02-02T06:20:14.123Z,1.55
2023-02-02T06:22:40.500Z,1.63
2023-02-02T06:25:08.597Z,1.67
2023-02-02T06:27:34.956Z,1.30
2023-02-02T06:30:01.512Z,1.40
2023-02-02T06:32:30.820Z,1.58
2023-02-02T06:34:57.185Z,1.20
2023-02-02T06:37:23.622Z,1.23
2023-02-02T06:39:50.008Z,1.85
2023-02-02T06:42:21.764Z,1.30
2023-02-02T06:44:48.512Z,1.10
2023-02-02T06:47:44.874Z,1.27
2023-02-02T06:50:11.729Z,1.58
2023-02-02T06:53:02.000Z,1.52
2023-02-02T06:55:28.434Z,1.27
2023-02-02T06:58:01.092Z,1.33
2023-02-02T07:00:38.264Z,1.20
2023-02-02T07:03:16.457Z,1.60
2023-02-02T07:05:43.085Z,1.77
2023-02-02T07:08:09.514Z,1.67
2023-02-02T07:11:14.056Z,2.05
2023-02-02T07:13:37.715Z,1.37
2023-02-02T07:16:23.564Z,1.08
2023-02-02T07:18:57.658Z,1.80
2023-02-02T07:21:29.391Z,1.48
2023-02-02T07:23:57.593Z,1.63
2023-02-02T07:26:24.083Z,1.50
2023-02-02T07:28:51.905Z,1.73
2023-02-02T07:31:23.413Z,1.88
2023-02-02T07:33:57.939Z,1.83
2023-02-02T07:36:25.106Z,1.90
2023-02-02T07:38:57.400Z,1.93
2023-02-02T07:41:24.731Z,2.13
2023-02-02T07:43:51.934Z,1.90
2023-02-02T07:46:19.310Z,1.67
2023-02-02T07:48:45.854Z,1.58
2023-02-02T07:51:15.755Z,1.93
2023-02-02T07:53:47.278Z,1.83
2023-02-02T07:56:16.200Z,2.22
2023-02-02T07:58:43.391Z,2.05
2023-02-02T08:01:11.921Z,1.60
2023-02-02T08:03:39.169Z,1.93
2023-02-02T08:06:16.181Z,1.63
2023-02-02T08:08:42.779Z,1.75
2023-02-02T08:11:11.086Z,1.40
2023-02-02T08:13:38.327Z,1.58
2023-02-02T08:16:05.771Z,1.50
2023-02-02T08:18:33.690Z,2.50
2023-02-02T08:21:01.405Z,1.90
2023-02-02T08:23:28.395Z,2.17
2023-02-02T08:26:04.733Z,1.88
2023-02-02T08:28:32.328Z,1.37
2023-02-02T08:31:04.577Z,1.70
2023-02-02T08:33:30.937Z,1.65
2023-02-02T08:35:57.349Z,1.60
2023-02-02T08:38:25.108Z,1.73
2023-02-02T08:40:51.454Z,1.10
2023-02-02T08:43:17.852Z,1.83
2023-02-02T08:46:01.532Z,1.58
2023-02-02T08:48:30.846Z,1.70
2023-02-02T08:50:59.162Z,1.50
2023-02-02T08:53:26.087Z,1.57
2023-02-02T08:56:20.088Z,1.52
2023-02-02T08:58:49.243Z,1.65
2023-02-02T09:01:18.120Z,1.30
2023-02-02T09:03:45.282Z,2.05
2023-02-02T09:06:17.180Z,0.90
2023-02-02T09:08:44.272Z,1.67
2023-02-02T09:11:16.493Z,1.40
2023-02-02T09:13:47.503Z,1.65
2023-02-02T09:16:16.307Z,2.20
2023-02-02T09:18:44.146Z,1.60
2023-02-02T09:21:14.000Z,0.90
2023-02-02T09:23:42.003Z,1.40
2023-02-02T09:26:20.135Z,1.35
2023-02-02T09:28:49.319Z,1.50
2023-02-02T09:31:16.520Z,1.70
2023-02-02T09:33:43.756Z,1.80
2023-02-02T09:36:17.441Z,1.60
2023-02-02T09:38:44.344Z,1.60
2023-02-02T09:41:19.545Z,1.80
2023-02-02T09:44:10.643Z,1.47
2023-02-02T09:46:46.071Z,1.05
2023-02-02T09:49:21.174Z,1.83
2023-02-02T09:51:56.745Z,1.17
2023-02-02T09:54:33.093Z,2.28
2023-02-02T09:57:02.963Z,1.30
2023-02-02T09:59:39.537Z,2.10
2023-02-02T10:02:17.128Z,1.58
2023-02-02T10:04:49.014Z,1.35
2023-02-02T10:07:45.593Z,1.95
2023-02-02T10:10:20.974Z,1.43
2023-02-02T10:12:59.283Z,1.70
2023-02-02T10:15:39.840Z,1.90
2023-02-02T10:18:35.258Z,1.60
2023-02-02T10:21:12.542Z,1.58
2023-02-02T10:23:40.819Z,1.67
2023-02-02T10:26:16.197Z,2.10
2023-02-02T10:28:44.612Z,1.20
2023-02-02T10:31:29.848Z,1.63
2023-02-02T10:34:09.680Z,1.10
2023-02-02T10:36:59.865Z,1.20
2023-02-02T10:39:39.186Z,1.30
2023-02-02T10:42:19.414Z,1.90
2023-02-02T10:44:52.968Z,1.05
2023-02-02T10:47:45.758Z,1.45
2023-02-02T10:50:12.136Z,1.70
2023-02-02T10:52:41.972Z,1.13
2023-02-02T10:55:14.295Z,1.30
2023-02-02T10:58:08.409Z,1.25
2023-02-02T11:00:55.138Z,1.90
2023-02-02T11:03:31.089Z,1.90
2023-02-02T11:06:19.796Z,1.48
2023-02-02T11:08:52.671Z,2.45
2023-02-02T11:11:24.796Z,1.88
2023-02-02T11:13:58.174Z,1.67
2023-02-02T11:16:41.437Z,1.47
2023-02-02T11:19:23.545Z,1.40
2023-02-02T11:21:56.364Z,1.55
2023-02-02T11:24:30.184Z,1.25
2023-02-02T11:27:01.592Z,1.35
2023-02-02T11:29:30.970Z,1.43
2023-02-02T11:31:58.122Z,0.88
2023-02-02T11:34:27.435Z,1.98
2023-02-02T11:37:01.204Z,1.00
2023-02-02T11:39:27.979Z,1.30
2023-02-02T11:42:05.515Z,1.03
2023-02-02T11:44:32.758Z,0.98
2023-02-02T11:47:01.556Z,1.40
2023-02-02T11:49:28.559Z,1.17
2023-02-02T11:52:00.276Z,1.00
2023-02-02T11:54:33.349Z,1.53
2023-02-02T11:57:02.875Z,1.30
2023-02-02T11:59:44.056Z,1.50
2023-02-02T12:02:19.746Z,1.15
2023-02-02T12:04:52.405Z,0.90
2023-02-02T12:07:28.562Z,1.17
2023-02-02T12:10:01.540Z,1.13
2023-02-02T12:12:55.619Z,1.80
2023-02-02T12:15:46.701Z,0.93
2023-02-02T12:18:38.839Z,1.40
2023-02-02T12:21:07.569Z,0.90
2023-02-02T12:23:46.588Z,1.10
2023-02-02T12:26:22.459Z,1.02
2023-02-02T12:29:13.854Z,1.15
2023-02-02T12:31:46.398Z,1.13
2023-02-02T12:34:12.777Z,1.07
2023-02-02T12:36:55.427Z,1.10
2023-02-02T12:39:22.306Z,1.60
2023-02-02T12:42:10.717Z,1.13
2023-02-02T12:45:08.426Z,1.33
2023-02-02T12:47:57.172Z,1.80
2023-02-02T12:50:35.197Z,1.20
2023-02-02T12:53:32.290Z,1.90
2023-02-02T12:56:20.865Z,0.90
2023-02-02T12:59:05.009Z,1.65
2023-02-02T13:01:53.064Z,1.20
2023-02-02T13:04:53.593Z,1.15
2023-02-02T13:07:31.842Z,1.23
2023-02-02T13:10:22.617Z,1.63
2023-02-02T13:12:56.713Z,1.00
2023-02-02T13:15:29.137Z,1.20
2023-02-02T13:18:01.925Z,0.90
2023-02-02T13:20:37.987Z,1.17
2023-02-02T13:23:13.196Z,1.13
2023-02-02T13:25:48.401Z,1.48
2023-02-02T13:28:40.198Z,1.53
2023-02-02T13:31:16.592Z,1.50
2023-02-02T13:33:45.817Z,1.55
2023-02-02T13:36:25.766Z,1.50
2023-02-02T13:38:57.633Z,1.10
2023-02-02T13:41:25.245Z,1.33
2023-02-02T13:44:15.963Z,1.08
2023-02-02T13:46:57.712Z,1.58
2023-02-02T13:49:40.212Z,1.33
2023-02-02T13:52:25.701Z,1.20
2023-02-02T13:55:30.284Z,1.00
2023-02-02T13:58:28.778Z,1.02
2023-02-02T14:01:01.854Z,0.70
2023-02-02T14:03:39.666Z,1.45
2023-02-02T14:06:48.717Z,1.00
2023-02-02T14:09:18.814Z,1.00
2023-02-02T14:11:56.434Z,0.80
2023-02-02T14:14:32.893Z,0.68
2023-02-02T14:17:19.224Z,0.65
2023-02-02T14:20:06.619Z,0.80
2023-02-02T14:22:48.650Z,0.50
2023-02-02T14:25:33.243Z,0.50
2023-02-02T14:28:02.726Z,0.65
2023-02-02T14:30:34.848Z,0.40
2023-02-02T14:33:25.009Z,0.60
2023-02-02T14:35:52.740Z,0.37
2023-02-02T14:38:37.415Z,0.47
2023-02-02T14:41:39.112Z,0.57
2023-02-02T14:44:06.343Z,0.50
2023-02-02T14:46:36.218Z,0.60
2023-02-02T14:49:02.551Z,0.70
2023-02-02T14:51:32.867Z,0.38
2023-02-02T14:54:08.497Z,0.50
2023-02-02T14:56:39.678Z,0.52
2023-02-02T14:59:07.666Z,0.60
2023-02-02T15:01:38.852Z,0.70
2023-02-02T15:04:21.018Z,0.60
2023-02-02T15:06:49.000Z,0.60
2023-02-02T15:09:26.679Z,1.10
2023-02-02T15:12:00.878Z,0.70
2023-02-02T15:15:05.235Z,0.60
2023-02-02T15:17:41.737Z,1.02
2023-02-02T15:20:25.439Z,0.90
2023-02-02T15:23:06.876Z,1.27
2023-02-02T15:25:54.446Z,1.15
2023-02-02T15:28:45.614Z,1.00
2023-02-02T15:31:46.532Z,1.52
2023-02-02T15:34:24.950Z,1.98
2023-02-02T15:36:58.503Z,1.30
2023-02-02T15:39:41.159Z,2.13
2023-02-02T15:42:36.869Z,1.70
2023-02-02T15:45:04.434Z,1.92
2023-02-02T15:47:36.190Z,2.30
2023-02-02T15:50:15.461Z,1.88
2023-02-02T15:52:48.609Z,2.53
2023-02-02T15:55:24.417Z,2.60
2023-02-02T15:57:54.287Z,2.30
2023-02-02T16:00:26.470Z,2.70
2023-02-02T16:03:00.075Z,1.85
2023-02-02T16:05:29.227Z,1.80
2023-02-02T16:08:05.588Z,1.60
2023-02-02T16:10:34.056Z,1.75
2023-02-02T16:13:00.455Z,1.83
2023-02-02T16:15:28.891Z,1.45
2023-02-02T16:18:00.652Z,1.90
2023-02-02T16:20:33.044Z,2.37
2023-02-02T16:23:04.235Z,2.10
2023-02-02T16:25:34.452Z,2.22
2023-02-02T16:28:01.443Z,2.03
2023-02-02T16:30:29.187Z,2.40
2023-02-02T16:32:55.772Z,2.33
2023-02-02T16:35:38.962Z,2.72
2023-02-02T16:38:32.602Z,2.45
2023-02-02T16:41:08.402Z,2.42
2023-02-02T16:43:37.999Z,2.70
2023-02-02T16:46:04.594Z,2.40
2023-02-02T16:48:35.640Z,2.97
2023-02-02T16:51:17.593Z,3.03
2023-02-02T16:54:17.538Z,2.90
2023-02-02T16:56:47.627Z,2.90
2023-02-02T16:59:22.083Z,2.87
2023-02-02T17:01:52.086Z,3.40
2023-02-02T17:04:25.713Z,2.80
2023-02-02T17:06:54.003Z,2.88
2023-02-02T17:09:37.297Z,2.92
2023-02-02T17:12:33.220Z,2.90
2023-02-02T17:15:16.969Z,2.60
2023-02-02T17:17:44.547Z,2.85
2023-02-02T17:20:12.523Z,2.75
2023-02-02T17:22:41.960Z,3.53
2023-02-02T17:25:16.955Z,2.93
2023-02-02T17:27:45.149Z,2.88
2023-02-02T17:30:17.485Z,3.35
2023-02-02T17:32:43.986Z,2.08
2023-02-02T17:35:23.102Z,2.50
2023-02-02T17:37:52.254Z,3.20
2023-02-02T17:40:21.114Z,2.67
2023-02-02T17:42:50.751Z,2.50
2023-02-02T17:45:23.022Z,2.70
2023-02-02T17:47:57.653Z,2.90
2023-02-02T17:50:24.559Z,2.33
2023-02-02T17:52:51.325Z,3.20
2023-02-02T17:55:33.017Z,3.20
2023-02-02T17:58:03.899Z,2.78
2023-02-02T18:00:31.647Z,2.70
2023-02-02T18:03:23.345Z,2.83
2023-02-02T18:05:59.520Z,2.70
2023-02-02T18:08:26.045Z,2.75
2023-02-02T18:10:53.697Z,2.72
2023-02-02T18:13:25.783Z,3.20
2023-02-02T18:15:53.134Z,2.97
2023-02-02T18:18:20.721Z,3.13
2023-02-02T18:20:49.516Z,2.78
2023-02-02T18:23:18.613Z,3.30
2023-02-02T18:25:52.800Z,2.65
2023-02-02T18:28:21.253Z,2.70
2023-02-02T18:30:47.698Z,2.47
2023-02-02T18:33:17.762Z,3.63
2023-02-02T18:35:45.898Z,3.72
2023-02-02T18:38:14.728Z,3.20
2023-02-02T18:40:43.228Z,2.50
2023-02-02T18:43:11.651Z,3.72
2023-02-02T18:45:38.025Z,3.33
2023-02-02T18:48:04.543Z,2.67
2023-02-02T18:50:30.880Z,3.03
2023-02-02T18:52:57.233Z,3.13
2023-02-02T18:55:23.886Z,3.67
2023-02-02T18:57:50.402Z,3.80
2023-02-02T19:00:17.096Z,3.35
2023-02-02T19:02:43.477Z,3.55
2023-02-02T19:06:08.637Z,3.43
2023-02-02T19:08:34.999Z,3.47
2023-02-02T19:11:18.165Z,4.00
2023-02-02T19:13:45.313Z,3.58
2023-02-02T19:16:23.770Z,3.53
2023-02-02T20:50:31.192Z,4.20
2023-02-02T20:52:59.668Z,3.25
2023-02-02T20:55:28.394Z,3.17
2023-02-02T20:57:54.908Z,3.00
2023-02-02T21:00:23.840Z,3.05
2023-02-02T21:02:52.042Z,3.20
2023-02-02T21:05:18.395Z,2.53
2023-02-02T21:07:44.753Z,2.38
2023-02-02T21:10:11.266Z,2.73
2023-02-02T21:12:37.619Z,2.58
2023-02-02T21:15:04.150Z,2.60
2023-02-02T21:17:30.564Z,2.67
2023-02-02T21:19:56.899Z,2.80
2023-02-02T21:22:23.299Z,3.03
2023-02-02T21:24:49.656Z,2.33
2023-02-02T21:27:16.180Z,2.78
2023-02-02T21:29:42.600Z,2.97
2023-02-02T21:32:12.072Z,2.40
2023-02-02T21:34:45.780Z,2.60
2023-02-02T21:37:28.361Z,2.55
2023-02-02T21:39:59.496Z,2.95
2023-02-02T21:42:39.279Z,3.03
2023-02-02T21:45:35.696Z,2.35
2023-02-02T21:48:07.099Z,2.33
2023-02-02T21:50:44.973Z,2.35
2023-02-02T21:53:24.050Z,2.30
2023-02-02T21:55:52.332Z,2.05
2023-02-02T21:58:22.241Z,2.28
2023-02-02T22:00:58.414Z,2.17
2023-02-02T22:03:29.534Z,2.25
2023-02-02T22:06:22.120Z,1.92
2023-02-02T22:08:49.175Z,2.00
2023-02-02T22:11:33.507Z,2.03
2023-02-02T22:14:51.708Z,1.70
2023-02-02T22:17:54.132Z,2.13
2023-02-02T22:20:34.580Z,2.03
2023-02-02T22:23:17.168Z,1.70
2023-02-02T22:25:45.232Z,1.88
2023-02-02T22:28:36.909Z,1.73
2023-02-02T22:31:04.919Z,1.85
2023-02-02T22:33:47.063Z,1.70
2023-02-02T22:36:14.401Z,1.70
2023-02-02T22:38:40.745Z,1.80
2023-02-02T22:41:08.911Z,1.20
2023-02-02T22:43:35.277Z,1.63
2023-02-02T22:46:01.817Z,1.67
2023-02-02T22:48:28.269Z,1.23
2023-02-02T22:50:54.728Z,2.10
2023-02-02T22:53:24.267Z,1.47
2023-02-02T22:56:03.033Z,1.42
2023-02-02T22:58:40.289Z,2.15
2023-02-02T23:01:07.678Z,1.35
2023-02-02T23:03:41.308Z,2.10
2023-02-02T23:06:07.869Z,2.03
2023-02-02T23:08:34.629Z,1.85
2023-02-02T23:11:01.385Z,2.40
2023-02-02T23:13:31.853Z,2.28
2023-02-02T23:15:58.280Z,2.70
2023-02-02T23:18:31.979Z,3.03
2023-02-02T23:21:07.645Z,2.20
2023-02-02T23:23:38.090Z,2.40
2023-02-02T23:26:19.939Z,1.90
2023-02-02T23:28:47.474Z,1.92
2023-02-02T23:31:14.073Z,1.90
2023-02-02T23:33:58.966Z,2.22
2023-02-02T23:36:25.395Z,1.77
2023-02-02T23:39:05.128Z,2.13
2023-02-02T23:41:40.801Z,2.40
2023-02-02T23:44:07.338Z,2.00
2023-02-02T23:46:33.872Z,2.15
2023-02-02T23:49:00.715Z,1.50
2023-02-02T23:51:27.308Z,2.15
2023-02-02T23:53:55.598Z,2.00
2023-02-02T23:56:22.431Z,2.20
2023-02-02T23:59:04.362Z,1.90
